KDUA/DUA METAR and TAF weather

Enter ICAO airport designator
Station Type Date Time Source
KDUA METAR 2019/06/17 21:39 UTC NOAA

KDUA 172139Z AUTO 00000KT 10SM BKN035 BKN045 32/19 A2991 RMK AO2


Station Type Date Time Source
KDUA Decoded METAR 2019/06/17 21:39 UTC NOAA

Durant, Eaker Field Airport, OK, United States (KDUA) 33-56-32N 096-23-40W
Jun 17, 2019 - 05:39 PM EDT / 2019.06.17 2139 UTC
Wind: Calm:0
Visibility: 10 mile(s):0
Sky conditions: mostly cloudy
Temperature: 89 F (32 C)
Dew Point: 66 F (19 C)
Relative Humidity: 46%
Pressure (altimeter): 29.91 in. Hg (1012 hPa)
ob: KDUA 172139Z AUTO 00000KT 10SM BKN035 BKN045 32/19 A2991 RMK AO2
cycle: 21

Station Type Date Time Source
KDUA TAF UTC NOAA

Error!

Example: see airport list